Time;durP1;ratioP1;P1;durP2;ratioP2;P2;SDS_P1;SDS_P2;PMS_P1;PMS_P2;Temp;Humidity;BMP_temperature;BMP_pressure;BME280_temperature;BME280_humidity;BME280_pressure;Samples;Min_cycle;Max_cycle;Signal;HPM_P1;HPM_P2
2022/01/29 00:02:22;;;;;;;;;;;2.90;99.90;;;;;;4977809;28;19914;-96
2022/01/29 00:04:48;;;;;;;;;;;3.00;99.90;;;;;;4975845;28;19919;-95
2022/01/29 00:07:14;;;;;;;;;;;3.00;99.90;;;;;;4977946;28;19918;-95
2022/01/29 00:09:44;;;;;;;;;;;3.00;99.90;;;;;;4992255;28;19969;-95
2022/01/29 00:12:15;;;;;;;;;;;3.00;99.90;;;;;;4976309;28;19934;-96
2022/01/29 00:14:41;;;;;;;;;;;3.00;99.90;;;;;;4976395;28;19922;-95
2022/01/29 00:17:07;;;;;;;;;;;3.00;99.90;;;;;;4995060;28;20401;-96
2022/01/29 00:19:35;;;;;;;;;;;3.00;99.90;;;;;;4974711;28;19921;-96
2022/01/29 00:22:03;;;;;;;;;;;3.00;99.90;;;;;;4994017;28;19917;-94
2022/01/29 00:24:29;;;;;;;;;;;3.00;99.90;;;;;;4977676;28;19921;-94
2022/01/29 00:26:57;;;;;;;;;;;3.00;99.90;;;;;;4977304;28;19934;-96
2022/01/29 00:29:25;;;;;;;;;;;2.90;99.90;;;;;;4976591;28;22712;-95
2022/01/29 00:31:51;;;;;;;;;;;2.90;99.90;;;;;;4975975;28;19910;-96
2022/01/29 00:34:19;;;;;;;;;;;2.90;99.90;;;;;;4975053;28;19914;-96
2022/01/29 00:36:48;;;;;;;;;;;2.90;99.90;;;;;;4975330;28;20382;-95
2022/01/29 00:39:14;;;;;;;;;;;2.80;99.90;;;;;;4977781;28;19934;-95
2022/01/29 00:41:39;;;;;;;;;;;2.90;99.90;;;;;;4978198;28;19932;-96
2022/01/29 00:44:07;;;;;;;;;;;2.80;99.90;;;;;;4978142;28;19916;-95
2022/01/29 00:46:33;;;;;;;;;;;2.80;99.90;;;;;;4977468;28;20341;-94
2022/01/29 12:54:07;;;;;;;;;;;2.80;94.00;;;;;;4902660;29;19965;-93
2022/01/29 13:03:08;;;;;;;;;;;2.70;95.00;;;;;;4855818;29;19972;-92
2022/01/29 13:08:49;;;;;;;;;;;;;;;;;;;;;
2022/01/29 13:18:12;;;;;;;;;;;2.70;95.20;;;;;;4859009;29;20399;-92
2022/01/29 13:21:29;;;;;;;;;;;;;;;;;;;;;
2022/01/29 13:33:24;;;;;;;;;;;2.60;95.30;;;;;;4858045;29;19923;-94
2022/01/29 13:36:23;;;;;;;;;;;;;;;;;;;;;
2022/01/29 13:39:35;;;;;;;;;;;;;;;;;;;;;
2022/01/29 13:42:34;;;;;;;;;;;2.50;95.30;;;;;;4855377;29;19921;-95
2022/01/29 13:48:31;;;;;;;;;;;2.50;95.50;;;;;;4841615;29;19924;-94
2022/01/29 13:51:21;;;;;;;;;;;2.50;95.70;;;;;;4817681;29;19936;-94
2022/01/29 13:54:24;;;;;;;;;;;;;;;;;;;;;
2022/01/29 14:01:02;;;;;;;;;;;;;;;;;;;;;
2022/01/29 14:10:11;;;;;;;;;;;;;;;;;;;;;
2022/01/29 15:13:44;;;;;;;;;;;;;;;;;;;;;
2022/01/29 15:22:47;;;;;;;;;;;2.00;94.70;;;;;;5018923;28;20388;-94
2022/01/29 15:29:08;;;;;;;;;;;;;;;;;;;;;
2022/01/29 15:54:18;;;;;;;;;;;2.00;94.10;;;;;;4964540;29;19974;-94
2022/01/29 15:57:07;;;;;;;;;;;2.00;93.60;;;;;;4940921;29;19920;-94
2022/01/29 15:59:49;;;;;;;;;;;1.90;93.30;;;;;;4945030;28;19957;-94
2022/01/29 16:19:15;;;;;;;;;;;;;;;;;;;;;
2022/01/29 16:22:11;;;;;;;;;;;1.90;92.80;;;;;;4750829;30;19957;-96
2022/01/29 16:25:42;;;;;;;;;;;;;;;;;;;;;
2022/01/29 16:34:34;;;;;;;;;;;1.90;93.00;;;;;;4728338;30;19919;-96
2022/01/29 16:41:17;;;;;;;;;;;1.90;92.90;;;;;;4778941;30;19919;-96
2022/01/29 16:50:04;;;;;;;;;;;1.80;92.60;;;;;;4864193;29;19923;-94
2022/01/29 16:53:09;;;;;;;;;;;;;;;;;;;;;
2022/01/29 16:56:00;;;;;;;;;;;1.90;91.60;;;;;;4939904;29;20010;-94
2022/01/29 17:01:39;;;;;;;;;;;;;;;;;;;;;
2022/01/29 17:10:20;;;;;;;;;;;1.80;91.80;;;;;;4862343;29;19920;-95
2022/01/29 17:12:50;;;;;;;;;;;1.80;91.20;;;;;;4861011;29;19911;-94
2022/01/29 17:18:34;;;;;;;;;;;;;;;;;;;;;
2022/01/29 17:24:15;;;;;;;;;;;1.80;91.20;;;;;;4898951;29;19919;-94
2022/01/29 17:27:08;;;;;;;;;;;1.80;91.10;;;;;;4866495;29;19920;-94
2022/01/29 17:29:50;;;;;;;;;;;1.80;90.80;;;;;;4886506;29;19911;-94
2022/01/29 17:32:43;;;;;;;;;;;1.80;90.80;;;;;;4899413;29;19911;-94
2022/01/29 17:35:32;;;;;;;;;;;1.70;90.90;;;;;;4916847;29;19911;-94
2022/01/29 17:38:20;;;;;;;;;;;1.80;91.30;;;;;;4937907;29;20355;-94
2022/01/29 17:40:52;;;;;;;;;;;1.80;90.90;;;;;;4938336;29;19949;-94
2022/01/29 17:43:41;;;;;;;;;;;1.80;90.70;;;;;;4938739;29;20247;-94
2022/01/29 17:49:30;;;;;;;;;;;1.80;90.30;;;;;;4925275;29;19957;-94
2022/01/29 17:52:06;;;;;;;;;;;;;;;;;;;;;
2022/01/29 17:55:23;;;;;;;;;;;1.80;90.50;;;;;;4939909;29;19998;-95
2022/01/29 17:57:35;;;;;;;;;;;1.70;90.20;;;;;;4933972;29;19915;-94
2022/01/29 18:00:27;;;;;;;;;;;1.70;88.80;;;;;;4938967;29;19917;-94
2022/01/29 18:03:21;;;;;;;;;;;1.70;88.80;;;;;;4933170;29;19974;-94
2022/01/29 18:07:09;;;;;;;;;;;1.70;87.50;;;;;;4918480;29;19915;-94
2022/01/29 18:12:10;;;;;;;;;;;1.60;87.10;;;;;;4934008;29;19910;-94
2022/01/29 18:15:09;;;;;;;;;;;;;;;;;;;;;
2022/01/29 18:17:38;;;;;;;;;;;1.60;86.90;;;;;;4936392;29;20372;-93
2022/01/29 18:20:20;;;;;;;;;;;1.60;87.80;;;;;;4937678;29;19910;-94
2022/01/29 18:23:11;;;;;;;;;;;1.60;86.00;;;;;;4938234;29;19966;-95
2022/01/29 18:25:47;;;;;;;;;;;;;;;;;;;;;
2022/01/29 18:28:51;;;;;;;;;;;;;;;;;;;;;
2022/01/29 18:31:55;;;;;;;;;;;1.60;84.70;;;;;;4943732;29;20009;-93
2022/01/29 18:34:47;;;;;;;;;;;1.60;85.40;;;;;;4924218;29;19911;-92
2022/01/29 18:37:29;;;;;;;;;;;1.70;85.70;;;;;;4941387;29;19918;-94
2022/01/29 18:46:18;;;;;;;;;;;1.70;82.30;;;;;;4941818;29;19911;-93
2022/01/29 18:48:56;;;;;;;;;;;1.70;84.90;;;;;;4941912;29;19919;-93
2022/01/29 18:52:00;;;;;;;;;;;;;;;;;;;;;
2022/01/29 18:54:49;;;;;;;;;;;1.70;83.30;;;;;;4941862;29;19938;-94
2022/01/29 18:57:29;;;;;;;;;;;1.60;82.40;;;;;;4923811;29;20389;-93
2022/01/29 19:00:04;;;;;;;;;;;;;;;;;;;;;
2022/01/29 19:02:48;;;;;;;;;;;1.70;83.30;;;;;;4941857;29;19994;-93
2022/01/29 19:11:01;;;;;;;;;;;1.70;83.30;;;;;;4942488;29;20310;-94
2022/01/29 19:13:37;;;;;;;;;;;1.70;83.00;;;;;;4940762;29;19950;-93
2022/01/29 19:16:33;;;;;;;;;;;;;;;;;;;;;
2022/01/29 19:19:25;;;;;;;;;;;;;;;;;;;;;
2022/01/29 19:22:30;;;;;;;;;;;1.70;81.20;;;;;;4941605;29;19917;-93
2022/01/29 19:25:29;;;;;;;;;;;1.60;80.70;;;;;;4923629;29;19911;-93
2022/01/29 19:28:31;;;;;;;;;;;1.60;81.60;;;;;;4939636;29;19958;-93
2022/01/29 19:30:49;;;;;;;;;;;1.70;80.80;;;;;;4938843;29;19918;-95
2022/01/29 19:33:34;;;;;;;;;;;1.70;81.00;;;;;;4940629;29;19990;-95
2022/01/29 19:39:25;;;;;;;;;;;;;;;;;;;;;
2022/01/29 19:41:54;;;;;;;;;;;1.70;82.20;;;;;;4941990;29;19922;-92
2022/01/29 19:47:45;;;;;;;;;;;1.70;80.40;;;;;;4939997;29;20278;-93
2022/01/29 19:50:18;;;;;;;;;;;1.70;81.30;;;;;;4926862;29;19918;-93
2022/01/29 19:52:54;;;;;;;;;;;1.70;80.90;;;;;;4940451;29;19911;-95
2022/01/29 19:55:40;;;;;;;;;;;;;;;;;;;;;
2022/01/29 19:58:30;;;;;;;;;;;;;;;;;;;;;
2022/01/29 20:03:59;;;;;;;;;;;1.60;80.80;;;;;;4942923;29;19911;-92
2022/01/29 20:07:36;;;;;;;;;;;1.60;79.50;;;;;;4947149;29;19934;-94
2022/01/29 20:09:48;;;;;;;;;;;1.60;78.20;;;;;;4936348;29;19917;-94
2022/01/29 20:12:37;;;;;;;;;;;1.60;78.80;;;;;;4940086;29;19993;-95
2022/01/29 20:15:23;;;;;;;;;;;1.60;79.70;;;;;;4939401;29;19939;-94
2022/01/29 20:18:00;;;;;;;;;;;1.60;80.90;;;;;;4923092;29;19954;-95
2022/01/29 20:20:51;;;;;;;;;;;1.50;78.90;;;;;;4939956;29;19933;-94
2022/01/29 20:23:31;;;;;;;;;;;1.60;78.90;;;;;;4939488;29;19911;-94
2022/01/29 20:29:05;;;;;;;;;;;1.50;78.40;;;;;;4940182;29;19919;-94
2022/01/29 20:31:47;;;;;;;;;;;;;;;;;;;;;
2022/01/29 20:34:33;;;;;;;;;;;1.50;79.10;;;;;;4940215;29;19917;-94
2022/01/29 20:37:27;;;;;;;;;;;1.50;76.90;;;;;;4939608;29;19918;-94
2022/01/29 20:40:06;;;;;;;;;;;1.40;76.40;;;;;;4939075;29;20006;-93
2022/01/29 20:43:05;;;;;;;;;;;;;;;;;;;;;
2022/01/29 20:45:57;;;;;;;;;;;1.40;77.10;;;;;;4931768;29;19922;-94
2022/01/29 20:48:33;;;;;;;;;;;1.40;79.10;;;;;;4938994;29;20338;-94
2022/01/29 20:51:16;;;;;;;;;;;;;;;;;;;;;
2022/01/29 20:53:53;;;;;;;;;;;1.40;77.30;;;;;;4939448;29;19914;-92
2022/01/29 20:56:22;;;;;;;;;;;1.40;76.90;;;;;;4936657;29;19922;-93
2022/01/29 20:59:03;;;;;;;;;;;;;;;;;;;;;
2022/01/29 21:01:52;;;;;;;;;;;1.40;77.60;;;;;;4939766;29;19910;-92
2022/01/29 21:04:39;;;;;;;;;;;1.40;76.70;;;;;;4918879;29;19921;-93
2022/01/29 21:13:17;;;;;;;;;;;1.40;76.10;;;;;;4933318;29;20436;-93
2022/01/29 21:16:00;;;;;;;;;;;1.40;75.70;;;;;;4937966;29;19919;-93
2022/01/29 21:18:57;;;;;;;;;;;1.30;75.00;;;;;;4937512;29;19911;-92
2022/01/29 21:21:33;;;;;;;;;;;1.30;75.80;;;;;;4912280;29;19953;-91
2022/01/29 21:24:37;;;;;;;;;;;1.30;75.70;;;;;;4938156;29;19950;-93
2022/01/29 21:30:25;;;;;;;;;;;;;;;;;;;;;
2022/01/29 21:33:32;;;;;;;;;;;1.20;75.10;;;;;;4928956;29;19921;-92
2022/01/29 21:36:03;;;;;;;;;;;1.20;74.30;;;;;;4920924;29;19911;-93
2022/01/29 21:38:41;;;;;;;;;;;1.20;73.70;;;;;;4938183;29;20402;-92
2022/01/29 21:41:43;;;;;;;;;;;;;;;;;;;;;
2022/01/29 21:47:27;;;;;;;;;;;1.10;75.00;;;;;;4925265;29;19923;-93
2022/01/29 21:50:07;;;;;;;;;;;1.10;72.30;;;;;;4921916;29;19918;-93
2022/01/29 21:53:00;;;;;;;;;;;1.10;72.80;;;;;;4937275;29;19910;-93
2022/01/29 21:55:39;;;;;;;;;;;;;;;;;;;;;
2022/01/29 22:01:48;;;;;;;;;;;;;;;;;;;;;
2022/01/29 22:04:18;;;;;;;;;;;1.10;72.60;;;;;;4898349;29;20371;-93
2022/01/29 22:07:00;;;;;;;;;;;;;;;;;;;;;
2022/01/29 22:09:47;;;;;;;;;;;1.10;69.80;;;;;;4940947;29;19917;-93
2022/01/29 22:12:18;;;;;;;;;;;1.10;71.90;;;;;;4955912;29;19910;-92
2022/01/29 22:15:06;;;;;;;;;;;1.10;70.90;;;;;;4924256;29;19921;-92
2022/01/29 22:18:04;;;;;;;;;;;1.10;70.20;;;;;;4959648;29;19918;-91
2022/01/29 22:20:46;;;;;;;;;;;1.00;71.40;;;;;;4943613;29;19911;-93
2022/01/29 22:23:24;;;;;;;;;;;1.00;71.10;;;;;;4959990;29;19914;-92
2022/01/29 22:25:49;;;;;;;;;;;1.00;70.30;;;;;;4959495;29;20001;-92
2022/01/29 22:28:20;;;;;;;;;;;1.00;70.80;;;;;;4959426;29;19966;-93
2022/01/29 22:31:04;;;;;;;;;;;1.00;70.70;;;;;;4953686;29;19950;-93
2022/01/29 22:33:49;;;;;;;;;;;1.00;71.60;;;;;;4941625;29;20009;-93
2022/01/29 22:36:48;;;;;;;;;;;1.10;72.10;;;;;;4940241;29;19926;-93
2022/01/29 22:39:48;;;;;;;;;;;1.10;70.90;;;;;;4923896;29;19942;-93
2022/01/29 22:42:43;;;;;;;;;;;1.10;70.10;;;;;;4925292;29;20347;-92
2022/01/29 22:45:15;;;;;;;;;;;1.10;70.10;;;;;;4941222;29;19911;-93
2022/01/29 22:50:39;;;;;;;;;;;;;;;;;;;;;
2022/01/29 22:53:31;;;;;;;;;;;1.10;72.30;;;;;;4941728;29;19911;-93
2022/01/29 22:56:13;;;;;;;;;;;1.10;72.00;;;;;;4935800;29;19922;-93
2022/01/29 22:58:49;;;;;;;;;;;1.10;72.00;;;;;;4941049;29;19914;-92
2022/01/29 23:01:49;;;;;;;;;;;1.20;72.30;;;;;;4941175;29;19968;-93
2022/01/29 23:04:38;;;;;;;;;;;;;;;;;;;;;
2022/01/29 23:07:41;;;;;;;;;;;;;;;;;;;;;
2022/01/29 23:10:36;;;;;;;;;;;;;;;;;;;;;
2022/01/29 23:16:19;;;;;;;;;;;1.20;73.00;;;;;;4901519;29;20008;-92
2022/01/29 23:25:10;;;;;;;;;;;1.40;74.00;;;;;;4901780;29;19911;-94
2022/01/29 23:30:48;;;;;;;;;;;1.40;73.70;;;;;;4933161;29;19919;-93
2022/01/29 23:39:26;;;;;;;;;;;1.50;74.60;;;;;;4931995;29;19911;-93
2022/01/29 23:42:20;;;;;;;;;;;;;;;;;;;;;
2022/01/29 23:45:08;;;;;;;;;;;1.40;74.20;;;;;;4940864;29;19911;-93
2022/01/29 23:50:43;;;;;;;;;;;1.40;74.60;;;;;;4941657;29;19934;-93
2022/01/29 23:53:37;;;;;;;;;;;1.40;75.10;;;;;;4939847;29;19918;-92
2022/01/29 23:56:10;;;;;;;;;;;1.30;75.40;;;;;;4937783;29;19966;-92
